X  Sluiten METAR luchtvaart weer gegevens      EHRD Rotterdam The Hague Airport
Temperatuur
82°F Temperatuur
61°F Dauwpunt
48% Vochtigheid



Wind
10 MPH
16 KM/U
4 M/S
9 KTS



110°
OZO
Huidig weer

Helder Helder
Luchtdruk 1008.81 (hPa) - 29.79 (inHg)
Zicht 6 (mijl) - 9.7 (km)
Vliegveld
Vliegveld code EHRD

Locatie : Rotterdam The Hague Airport
Afstand: 23 (mi)

Metar:
EHRD 200925Z AUTO 11009KT 080V150 9999 NCD 28/16 Q1009 NOSIG

Tijd: 20-07-2024 11:25 CEST